sensor_id;sensor_type;location;lat;lon;timestamp;P1;durP1;ratioP1;P2;durP2;ratioP2
23262;SDS011;11800;49.830;9.922;2023-04-10T00:01:49;0.20;;;0.20;;
23262;SDS011;11800;49.830;9.922;2023-04-10T00:04:15;0.20;;;0.20;;
23262;SDS011;11800;49.830;9.922;2023-04-10T00:06:42;0.10;;;0.10;;
23262;SDS011;11800;49.830;9.922;2023-04-10T00:09:08;0.10;;;0.10;;
23262;SDS011;11800;49.830;9.922;2023-04-10T00:11:35;0.17;;;0.17;;
23262;SDS011;11800;49.830;9.922;2023-04-10T00:14:00;0.17;;;0.17;;
23262;SDS011;11800;49.830;9.922;2023-04-10T00:16:26;0.20;;;0.20;;
23262;SDS011;11800;49.830;9.922;2023-04-10T00:18:52;0.20;;;0.20;;
23262;SDS011;11800;49.830;9.922;2023-04-10T00:21:18;0.20;;;0.20;;
23262;SDS011;11800;49.830;9.922;2023-04-10T00:23:44;0.10;;;0.10;;
23262;SDS011;11800;49.830;9.922;2023-04-10T00:26:10;0.20;;;0.20;;
23262;SDS011;11800;49.830;9.922;2023-04-10T00:28:36;0.17;;;0.17;;
23262;SDS011;11800;49.830;9.922;2023-04-10T00:31:03;0.20;;;0.20;;
23262;SDS011;11800;49.830;9.922;2023-04-10T00:33:29;0.15;;;0.15;;
23262;SDS011;11800;49.830;9.922;2023-04-10T00:35:55;0.10;;;0.10;;
23262;SDS011;11800;49.830;9.922;2023-04-10T00:38:21;0.10;;;0.10;;
23262;SDS011;11800;49.830;9.922;2023-04-10T00:40:47;0.20;;;0.20;;
23262;SDS011;11800;49.830;9.922;2023-04-10T00:43:13;0.17;;;0.17;;
23262;SDS011;11800;49.830;9.922;2023-04-10T00:45:39;0.20;;;0.20;;
23262;SDS011;11800;49.830;9.922;2023-04-10T00:48:05;0.10;;;0.10;;
23262;SDS011;11800;49.830;9.922;2023-04-10T00:50:32;0.20;;;0.20;;
23262;SDS011;11800;49.830;9.922;2023-04-10T00:52:58;0.20;;;0.20;;
23262;SDS011;11800;49.830;9.922;2023-04-10T00:55:24;0.20;;;0.20;;
23262;SDS011;11800;49.830;9.922;2023-04-10T00:57:50;0.10;;;0.10;;
23262;SDS011;11800;49.830;9.922;2023-04-10T01:00:17;0.20;;;0.20;;
23262;SDS011;11800;49.830;9.922;2023-04-10T01:02:43;0.20;;;0.20;;
23262;SDS011;11800;49.830;9.922;2023-04-10T01:05:09;0.20;;;0.20;;
23262;SDS011;11800;49.830;9.922;2023-04-10T01:08:11;0.10;;;0.10;;
23262;SDS011;11800;49.830;9.922;2023-04-10T01:10:37;0.20;;;0.20;;
23262;SDS011;11800;49.830;9.922;2023-04-10T01:15:31;0.20;;;0.20;;
23262;SDS011;11800;49.830;9.922;2023-04-10T01:20:28;0.20;;;0.20;;
23262;SDS011;11800;49.830;9.922;2023-04-10T01:25:53;0.20;;;0.20;;
23262;SDS011;11800;49.830;9.922;2023-04-10T01:31:05;0.20;;;0.20;;
23262;SDS011;11800;49.830;9.922;2023-04-10T01:33:38;0.10;;;0.10;;
23262;SDS011;11800;49.830;9.922;2023-04-10T01:36:05;0.20;;;0.20;;
23262;SDS011;11800;49.830;9.922;2023-04-10T01:38:32;0.20;;;0.20;;
23262;SDS011;11800;49.830;9.922;2023-04-10T01:40:58;0.20;;;0.20;;
23262;SDS011;11800;49.830;9.922;2023-04-10T01:43:25;0.20;;;0.20;;
23262;SDS011;11800;49.830;9.922;2023-04-10T01:45:52;0.13;;;0.13;;
23262;SDS011;11800;49.830;9.922;2023-04-10T01:48:18;0.10;;;0.10;;
23262;SDS011;11800;49.830;9.922;2023-04-10T01:50:46;0.20;;;0.20;;
23262;SDS011;11800;49.830;9.922;2023-04-10T01:53:12;0.10;;;0.10;;
23262;SDS011;11800;49.830;9.922;2023-04-10T01:55:39;0.20;;;0.20;;
23262;SDS011;11800;49.830;9.922;2023-04-10T01:58:05;0.20;;;0.20;;
23262;SDS011;11800;49.830;9.922;2023-04-10T02:00:41;0.20;;;0.20;;
23262;SDS011;11800;49.830;9.922;2023-04-10T02:03:07;0.20;;;0.20;;
23262;SDS011;11800;49.830;9.922;2023-04-10T02:08:21;0.20;;;0.20;;
23262;SDS011;11800;49.830;9.922;2023-04-10T02:10:57;0.20;;;0.20;;
23262;SDS011;11800;49.830;9.922;2023-04-10T02:13:27;0.20;;;0.20;;
23262;SDS011;11800;49.830;9.922;2023-04-10T02:15:54;0.20;;;0.20;;
23262;SDS011;11800;49.830;9.922;2023-04-10T02:18:20;0.20;;;0.20;;
23262;SDS011;11800;49.830;9.922;2023-04-10T02:20:47;0.20;;;0.20;;
23262;SDS011;11800;49.830;9.922;2023-04-10T02:23:14;0.20;;;0.20;;
23262;SDS011;11800;49.830;9.922;2023-04-10T02:25:40;0.20;;;0.20;;
23262;SDS011;11800;49.830;9.922;2023-04-10T02:28:06;0.20;;;0.20;;
23262;SDS011;11800;49.830;9.922;2023-04-10T02:30:33;0.20;;;0.20;;
23262;SDS011;11800;49.830;9.922;2023-04-10T02:33:00;0.20;;;0.20;;
23262;SDS011;11800;49.830;9.922;2023-04-10T02:35:26;0.20;;;0.20;;
23262;SDS011;11800;49.830;9.922;2023-04-10T02:37:53;0.20;;;0.20;;
23262;SDS011;11800;49.830;9.922;2023-04-10T02:40:19;0.10;;;0.10;;
23262;SDS011;11800;49.830;9.922;2023-04-10T02:42:45;0.20;;;0.20;;
23262;SDS011;11800;49.830;9.922;2023-04-10T02:45:11;0.17;;;0.17;;
23262;SDS011;11800;49.830;9.922;2023-04-10T02:47:37;0.10;;;0.10;;
23262;SDS011;11800;49.830;9.922;2023-04-10T02:50:03;0.10;;;0.10;;
23262;SDS011;11800;49.830;9.922;2023-04-10T02:52:30;0.10;;;0.10;;
23262;SDS011;11800;49.830;9.922;2023-04-10T02:54:56;0.20;;;0.20;;
23262;SDS011;11800;49.830;9.922;2023-04-10T02:57:21;0.10;;;0.10;;
23262;SDS011;11800;49.830;9.922;2023-04-10T02:59:50;0.10;;;0.10;;
23262;SDS011;11800;49.830;9.922;2023-04-10T03:02:17;0.20;;;0.20;;
23262;SDS011;11800;49.830;9.922;2023-04-10T03:04:43;0.10;;;0.10;;
23262;SDS011;11800;49.830;9.922;2023-04-10T03:07:09;0.20;;;0.20;;
23262;SDS011;11800;49.830;9.922;2023-04-10T03:09:35;0.20;;;0.20;;
23262;SDS011;11800;49.830;9.922;2023-04-10T03:12:01;0.20;;;0.20;;
23262;SDS011;11800;49.830;9.922;2023-04-10T03:14:27;0.20;;;0.20;;
23262;SDS011;11800;49.830;9.922;2023-04-10T03:16:53;0.20;;;0.20;;
23262;SDS011;11800;49.830;9.922;2023-04-10T03:19:19;0.10;;;0.10;;
23262;SDS011;11800;49.830;9.922;2023-04-10T03:21:45;0.20;;;0.20;;
23262;SDS011;11800;49.830;9.922;2023-04-10T03:24:11;0.20;;;0.20;;
23262;SDS011;11800;49.830;9.922;2023-04-10T03:26:37;0.20;;;0.20;;
23262;SDS011;11800;49.830;9.922;2023-04-10T03:29:03;0.20;;;0.20;;
23262;SDS011;11800;49.830;9.922;2023-04-10T03:31:29;0.20;;;0.20;;
23262;SDS011;11800;49.830;9.922;2023-04-10T03:33:55;0.20;;;0.20;;
23262;SDS011;11800;49.830;9.922;2023-04-10T03:36:21;0.20;;;0.20;;
23262;SDS011;11800;49.830;9.922;2023-04-10T03:38:47;0.15;;;0.15;;
23262;SDS011;11800;49.830;9.922;2023-04-10T03:41:13;0.20;;;0.20;;
23262;SDS011;11800;49.830;9.922;2023-04-10T03:43:39;0.20;;;0.20;;
23262;SDS011;11800;49.830;9.922;2023-04-10T03:46:05;0.20;;;0.20;;
23262;SDS011;11800;49.830;9.922;2023-04-10T03:48:31;0.10;;;0.10;;
23262;SDS011;11800;49.830;9.922;2023-04-10T03:50:57;0.20;;;0.20;;
23262;SDS011;11800;49.830;9.922;2023-04-10T03:53:23;0.20;;;0.20;;
23262;SDS011;11800;49.830;9.922;2023-04-10T03:55:49;0.20;;;0.20;;
23262;SDS011;11800;49.830;9.922;2023-04-10T03:58:18;0.20;;;0.20;;
23262;SDS011;11800;49.830;9.922;2023-04-10T04:00:44;0.20;;;0.20;;
23262;SDS011;11800;49.830;9.922;2023-04-10T04:03:10;0.20;;;0.20;;
23262;SDS011;11800;49.830;9.922;2023-04-10T04:05:36;0.13;;;0.13;;
23262;SDS011;11800;49.830;9.922;2023-04-10T04:08:03;0.20;;;0.20;;
23262;SDS011;11800;49.830;9.922;2023-04-10T04:10:30;0.20;;;0.20;;
23262;SDS011;11800;49.830;9.922;2023-04-10T04:12:56;0.20;;;0.20;;
23262;SDS011;11800;49.830;9.922;2023-04-10T04:15:22;0.20;;;0.20;;
23262;SDS011;11800;49.830;9.922;2023-04-10T04:17:48;0.20;;;0.20;;
23262;SDS011;11800;49.830;9.922;2023-04-10T04:20:15;0.20;;;0.20;;
23262;SDS011;11800;49.830;9.922;2023-04-10T04:22:41;0.20;;;0.20;;
23262;SDS011;11800;49.830;9.922;2023-04-10T04:25:07;0.10;;;0.10;;
23262;SDS011;11800;49.830;9.922;2023-04-10T04:27:35;0.20;;;0.20;;
23262;SDS011;11800;49.830;9.922;2023-04-10T04:30:01;0.20;;;0.20;;
23262;SDS011;11800;49.830;9.922;2023-04-10T04:32:27;0.20;;;0.20;;
23262;SDS011;11800;49.830;9.922;2023-04-10T04:34:53;0.20;;;0.20;;
23262;SDS011;11800;49.830;9.922;2023-04-10T04:37:19;0.20;;;0.20;;
23262;SDS011;11800;49.830;9.922;2023-04-10T04:39:45;0.20;;;0.20;;
23262;SDS011;11800;49.830;9.922;2023-04-10T04:42:11;0.20;;;0.20;;
23262;SDS011;11800;49.830;9.922;2023-04-10T04:44:37;0.20;;;0.20;;
23262;SDS011;11800;49.830;9.922;2023-04-10T04:47:03;0.20;;;0.20;;
23262;SDS011;11800;49.830;9.922;2023-04-10T04:49:29;0.20;;;0.20;;
23262;SDS011;11800;49.830;9.922;2023-04-10T04:51:55;0.20;;;0.20;;
23262;SDS011;11800;49.830;9.922;2023-04-10T04:54:21;0.20;;;0.20;;
23262;SDS011;11800;49.830;9.922;2023-04-10T04:56:47;0.20;;;0.20;;
23262;SDS011;11800;49.830;9.922;2023-04-10T04:59:13;0.20;;;0.20;;
23262;SDS011;11800;49.830;9.922;2023-04-10T05:01:39;0.10;;;0.10;;
23262;SDS011;11800;49.830;9.922;2023-04-10T05:04:05;0.20;;;0.20;;
23262;SDS011;11800;49.830;9.922;2023-04-10T05:06:31;0.20;;;0.20;;
23262;SDS011;11800;49.830;9.922;2023-04-10T05:08:57;0.10;;;0.10;;
23262;SDS011;11800;49.830;9.922;2023-04-10T05:11:23;0.20;;;0.20;;
23262;SDS011;11800;49.830;9.922;2023-04-10T05:13:49;0.20;;;0.20;;
23262;SDS011;11800;49.830;9.922;2023-04-10T05:16:15;0.20;;;0.20;;
23262;SDS011;11800;49.830;9.922;2023-04-10T05:18:41;0.20;;;0.20;;
23262;SDS011;11800;49.830;9.922;2023-04-10T05:21:07;0.20;;;0.20;;
23262;SDS011;11800;49.830;9.922;2023-04-10T05:23:33;0.20;;;0.20;;
23262;SDS011;11800;49.830;9.922;2023-04-10T05:25:59;0.20;;;0.20;;
23262;SDS011;11800;49.830;9.922;2023-04-10T05:28:25;0.20;;;0.20;;
23262;SDS011;11800;49.830;9.922;2023-04-10T05:30:51;0.20;;;0.20;;
23262;SDS011;11800;49.830;9.922;2023-04-10T05:33:17;0.10;;;0.10;;
23262;SDS011;11800;49.830;9.922;2023-04-10T05:35:43;0.20;;;0.20;;
23262;SDS011;11800;49.830;9.922;2023-04-10T05:38:10;0.10;;;0.10;;
23262;SDS011;11800;49.830;9.922;2023-04-10T05:40:36;0.13;;;0.13;;
23262;SDS011;11800;49.830;9.922;2023-04-10T05:43:02;0.13;;;0.13;;
23262;SDS011;11800;49.830;9.922;2023-04-10T05:45:28;0.20;;;0.20;;
23262;SDS011;11800;49.830;9.922;2023-04-10T05:47:54;0.20;;;0.20;;
23262;SDS011;11800;49.830;9.922;2023-04-10T05:50:20;0.20;;;0.20;;
23262;SDS011;11800;49.830;9.922;2023-04-10T05:52:46;0.20;;;0.20;;
23262;SDS011;11800;49.830;9.922;2023-04-10T05:55:12;0.20;;;0.20;;
23262;SDS011;11800;49.830;9.922;2023-04-10T05:57:38;0.20;;;0.20;;
23262;SDS011;11800;49.830;9.922;2023-04-10T06:00:04;0.20;;;0.20;;
23262;SDS011;11800;49.830;9.922;2023-04-10T06:02:31;0.17;;;0.17;;
23262;SDS011;11800;49.830;9.922;2023-04-10T06:04:57;0.20;;;0.20;;
23262;SDS011;11800;49.830;9.922;2023-04-10T06:07:23;0.10;;;0.10;;
23262;SDS011;11800;49.830;9.922;2023-04-10T06:09:49;0.20;;;0.20;;
23262;SDS011;11800;49.830;9.922;2023-04-10T06:12:15;0.20;;;0.20;;
23262;SDS011;11800;49.830;9.922;2023-04-10T06:14:41;0.20;;;0.20;;
23262;SDS011;11800;49.830;9.922;2023-04-10T06:17:07;0.13;;;0.13;;
23262;SDS011;11800;49.830;9.922;2023-04-10T06:19:33;0.20;;;0.20;;
23262;SDS011;11800;49.830;9.922;2023-04-10T06:21:59;0.10;;;0.10;;
23262;SDS011;11800;49.830;9.922;2023-04-10T06:24:25;0.10;;;0.10;;
23262;SDS011;11800;49.830;9.922;2023-04-10T06:26:51;0.20;;;0.20;;
23262;SDS011;11800;49.830;9.922;2023-04-10T06:29:17;0.10;;;0.10;;
23262;SDS011;11800;49.830;9.922;2023-04-10T06:31:43;0.20;;;0.20;;
23262;SDS011;11800;49.830;9.922;2023-04-10T06:34:09;0.20;;;0.20;;
23262;SDS011;11800;49.830;9.922;2023-04-10T06:36:35;0.13;;;0.13;;
23262;SDS011;11800;49.830;9.922;2023-04-10T06:39:01;0.13;;;0.13;;
23262;SDS011;11800;49.830;9.922;2023-04-10T06:41:27;0.10;;;0.10;;
23262;SDS011;11800;49.830;9.922;2023-04-10T06:43:53;0.10;;;0.10;;
23262;SDS011;11800;49.830;9.922;2023-04-10T06:46:19;0.20;;;0.20;;
23262;SDS011;11800;49.830;9.922;2023-04-10T06:48:45;0.17;;;0.17;;
23262;SDS011;11800;49.830;9.922;2023-04-10T06:51:11;0.10;;;0.10;;
23262;SDS011;11800;49.830;9.922;2023-04-10T06:53:37;0.10;;;0.10;;
23262;SDS011;11800;49.830;9.922;2023-04-10T06:56:03;0.10;;;0.10;;
23262;SDS011;11800;49.830;9.922;2023-04-10T06:58:31;0.10;;;0.10;;
23262;SDS011;11800;49.830;9.922;2023-04-10T07:00:57;0.10;;;0.10;;
23262;SDS011;11800;49.830;9.922;2023-04-10T07:03:25;0.10;;;0.10;;
23262;SDS011;11800;49.830;9.922;2023-04-10T07:05:51;0.10;;;0.10;;
23262;SDS011;11800;49.830;9.922;2023-04-10T07:08:16;0.10;;;0.10;;
23262;SDS011;11800;49.830;9.922;2023-04-10T07:10:43;0.20;;;0.20;;
23262;SDS011;11800;49.830;9.922;2023-04-10T07:13:08;0.10;;;0.10;;
23262;SDS011;11800;49.830;9.922;2023-04-10T07:15:34;0.10;;;0.10;;
23262;SDS011;11800;49.830;9.922;2023-04-10T07:18:00;0.10;;;0.10;;
23262;SDS011;11800;49.830;9.922;2023-04-10T07:20:26;0.10;;;0.10;;
23262;SDS011;11800;49.830;9.922;2023-04-10T07:22:52;0.15;;;0.15;;
23262;SDS011;11800;49.830;9.922;2023-04-10T07:25:18;0.10;;;0.10;;
23262;SDS011;11800;49.830;9.922;2023-04-10T07:27:44;0.10;;;0.10;;
23262;SDS011;11800;49.830;9.922;2023-04-10T07:30:10;0.10;;;0.10;;
23262;SDS011;11800;49.830;9.922;2023-04-10T07:32:37;0.10;;;0.10;;
23262;SDS011;11800;49.830;9.922;2023-04-10T07:35:04;0.10;;;0.10;;
23262;SDS011;11800;49.830;9.922;2023-04-10T07:37:31;0.10;;;0.10;;
23262;SDS011;11800;49.830;9.922;2023-04-10T07:39:57;0.10;;;0.10;;
23262;SDS011;11800;49.830;9.922;2023-04-10T07:42:23;0.10;;;0.10;;
23262;SDS011;11800;49.830;9.922;2023-04-10T07:44:49;0.10;;;0.10;;
23262;SDS011;11800;49.830;9.922;2023-04-10T07:47:15;0.10;;;0.10;;
23262;SDS011;11800;49.830;9.922;2023-04-10T07:49:41;0.10;;;0.10;;
23262;SDS011;11800;49.830;9.922;2023-04-10T07:52:07;0.10;;;0.10;;
23262;SDS011;11800;49.830;9.922;2023-04-10T07:54:33;0.08;;;0.08;;
23262;SDS011;11800;49.830;9.922;2023-04-10T07:56:59;0.10;;;0.10;;
23262;SDS011;11800;49.830;9.922;2023-04-10T07:59:26;0.10;;;0.10;;
23262;SDS011;11800;49.830;9.922;2023-04-10T08:01:52;0.10;;;0.10;;
23262;SDS011;11800;49.830;9.922;2023-04-10T08:04:18;0.10;;;0.10;;
23262;SDS011;11800;49.830;9.922;2023-04-10T08:06:44;0.10;;;0.10;;
23262;SDS011;11800;49.830;9.922;2023-04-10T08:09:10;0.10;;;0.10;;
23262;SDS011;11800;49.830;9.922;2023-04-10T08:11:36;0.10;;;0.10;;
23262;SDS011;11800;49.830;9.922;2023-04-10T08:14:02;0.10;;;0.10;;
23262;SDS011;11800;49.830;9.922;2023-04-10T08:16:31;0.10;;;0.10;;
23262;SDS011;11800;49.830;9.922;2023-04-10T08:18:58;0.10;;;0.10;;
23262;SDS011;11800;49.830;9.922;2023-04-10T08:21:24;0.10;;;0.10;;
23262;SDS011;11800;49.830;9.922;2023-04-10T08:23:58;0.10;;;0.10;;
23262;SDS011;11800;49.830;9.922;2023-04-10T08:26:24;0.10;;;0.10;;
23262;SDS011;11800;49.830;9.922;2023-04-10T08:28:51;0.10;;;0.10;;
23262;SDS011;11800;49.830;9.922;2023-04-10T08:31:18;0.10;;;0.10;;
23262;SDS011;11800;49.830;9.922;2023-04-10T08:33:44;0.10;;;0.10;;
23262;SDS011;11800;49.830;9.922;2023-04-10T08:36:11;0.10;;;0.10;;
23262;SDS011;11800;49.830;9.922;2023-04-10T08:38:39;0.10;;;0.10;;
23262;SDS011;11800;49.830;9.922;2023-04-10T08:41:05;0.10;;;0.10;;
23262;SDS011;11800;49.830;9.922;2023-04-10T08:43:31;0.10;;;0.10;;
23262;SDS011;11800;49.830;9.922;2023-04-10T08:45:59;0.10;;;0.10;;
23262;SDS011;11800;49.830;9.922;2023-04-10T08:48:28;0.10;;;0.10;;
23262;SDS011;11800;49.830;9.922;2023-04-10T08:50:55;0.10;;;0.10;;
23262;SDS011;11800;49.830;9.922;2023-04-10T08:53:25;0.10;;;0.10;;
23262;SDS011;11800;49.830;9.922;2023-04-10T08:55:55;0.10;;;0.10;;
23262;SDS011;11800;49.830;9.922;2023-04-10T08:58:22;0.10;;;0.10;;
23262;SDS011;11800;49.830;9.922;2023-04-10T09:00:49;0.10;;;0.10;;
23262;SDS011;11800;49.830;9.922;2023-04-10T09:03:15;0.10;;;0.10;;
23262;SDS011;11800;49.830;9.922;2023-04-10T09:05:41;0.10;;;0.10;;
23262;SDS011;11800;49.830;9.922;2023-04-10T09:08:08;0.10;;;0.10;;
23262;SDS011;11800;49.830;9.922;2023-04-10T09:10:36;0.10;;;0.10;;
23262;SDS011;11800;49.830;9.922;2023-04-10T09:13:02;0.10;;;0.10;;
23262;SDS011;11800;49.830;9.922;2023-04-10T09:15:28;0.10;;;0.10;;
23262;SDS011;11800;49.830;9.922;2023-04-10T09:20:23;0.10;;;0.10;;
23262;SDS011;11800;49.830;9.922;2023-04-10T09:22:50;0.10;;;0.10;;
23262;SDS011;11800;49.830;9.922;2023-04-10T09:25:35;0.10;;;0.10;;
23262;SDS011;11800;49.830;9.922;2023-04-10T09:28:06;0.10;;;0.10;;
23262;SDS011;11800;49.830;9.922;2023-04-10T09:30:36;0.10;;;0.10;;
23262;SDS011;11800;49.830;9.922;2023-04-10T09:33:19;0.00;;;0.00;;
23262;SDS011;11800;49.830;9.922;2023-04-10T09:35:46;0.10;;;0.10;;
23262;SDS011;11800;49.830;9.922;2023-04-10T09:38:16;0.10;;;0.10;;
23262;SDS011;11800;49.830;9.922;2023-04-10T09:40:42;0.00;;;0.00;;
23262;SDS011;11800;49.830;9.922;2023-04-10T09:45:51;0.10;;;0.10;;
23262;SDS011;11800;49.830;9.922;2023-04-10T09:48:17;0.10;;;0.10;;
23262;SDS011;11800;49.830;9.922;2023-04-10T09:50:44;0.10;;;0.10;;
23262;SDS011;11800;49.830;9.922;2023-04-10T09:53:11;0.10;;;0.10;;
23262;SDS011;11800;49.830;9.922;2023-04-10T09:55:37;0.10;;;0.10;;
23262;SDS011;11800;49.830;9.922;2023-04-10T09:58:04;0.10;;;0.10;;
23262;SDS011;11800;49.830;9.922;2023-04-10T10:00:32;0.10;;;0.10;;
23262;SDS011;11800;49.830;9.922;2023-04-10T10:03:01;0.10;;;0.10;;
23262;SDS011;11800;49.830;9.922;2023-04-10T10:05:27;0.10;;;0.10;;
23262;SDS011;11800;49.830;9.922;2023-04-10T10:07:55;0.10;;;0.10;;
23262;SDS011;11800;49.830;9.922;2023-04-10T10:10:21;0.10;;;0.10;;
23262;SDS011;11800;49.830;9.922;2023-04-10T10:12:53;0.10;;;0.10;;
23262;SDS011;11800;49.830;9.922;2023-04-10T10:15:27;0.10;;;0.10;;
23262;SDS011;11800;49.830;9.922;2023-04-10T10:20:20;0.10;;;0.10;;
23262;SDS011;11800;49.830;9.922;2023-04-10T10:22:47;0.10;;;0.10;;
23262;SDS011;11800;49.830;9.922;2023-04-10T10:25:14;0.10;;;0.10;;
23262;SDS011;11800;49.830;9.922;2023-04-10T10:27:40;0.10;;;0.10;;
23262;SDS011;11800;49.830;9.922;2023-04-10T10:30:07;0.10;;;0.10;;
23262;SDS011;11800;49.830;9.922;2023-04-10T10:32:34;0.10;;;0.10;;
23262;SDS011;11800;49.830;9.922;2023-04-10T10:35:01;0.10;;;0.10;;
23262;SDS011;11800;49.830;9.922;2023-04-10T10:37:28;0.10;;;0.10;;
23262;SDS011;11800;49.830;9.922;2023-04-10T10:40:03;0.10;;;0.10;;
23262;SDS011;11800;49.830;9.922;2023-04-10T10:42:41;0.10;;;0.10;;
23262;SDS011;11800;49.830;9.922;2023-04-10T10:45:11;0.00;;;0.00;;
23262;SDS011;11800;49.830;9.922;2023-04-10T10:47:42;0.10;;;0.10;;
23262;SDS011;11800;49.830;9.922;2023-04-10T10:50:09;0.10;;;0.10;;
23262;SDS011;11800;49.830;9.922;2023-04-10T10:53:08;0.10;;;0.10;;
23262;SDS011;11800;49.830;9.922;2023-04-10T10:55:28;0.10;;;0.10;;
23262;SDS011;11800;49.830;9.922;2023-04-10T11:11:04;0.10;;;0.10;;
23262;SDS011;11800;49.830;9.922;2023-04-10T11:13:30;0.10;;;0.10;;
23262;SDS011;11800;49.830;9.922;2023-04-10T11:15:57;0.10;;;0.10;;
23262;SDS011;11800;49.830;9.922;2023-04-10T11:21:22;0.10;;;0.10;;
23262;SDS011;11800;49.830;9.922;2023-04-10T11:29:04;0.10;;;0.10;;
23262;SDS011;11800;49.830;9.922;2023-04-10T11:31:31;0.10;;;0.10;;
23262;SDS011;11800;49.830;9.922;2023-04-10T11:34:03;0.10;;;0.10;;
23262;SDS011;11800;49.830;9.922;2023-04-10T11:36:30;0.10;;;0.10;;
23262;SDS011;11800;49.830;9.922;2023-04-10T11:39:00;0.10;;;0.10;;
23262;SDS011;11800;49.830;9.922;2023-04-10T11:41:33;0.10;;;0.10;;
23262;SDS011;11800;49.830;9.922;2023-04-10T11:43:59;0.10;;;0.10;;
23262;SDS011;11800;49.830;9.922;2023-04-10T11:46:26;0.10;;;0.10;;
23262;SDS011;11800;49.830;9.922;2023-04-10T11:49:02;0.10;;;0.10;;
23262;SDS011;11800;49.830;9.922;2023-04-10T11:51:28;0.10;;;0.10;;
23262;SDS011;11800;49.830;9.922;2023-04-10T11:58:56;0.10;;;0.10;;
23262;SDS011;11800;49.830;9.922;2023-04-10T12:01:22;0.10;;;0.10;;
23262;SDS011;11800;49.830;9.922;2023-04-10T12:03:48;0.10;;;0.10;;
23262;SDS011;11800;49.830;9.922;2023-04-10T12:06:14;0.10;;;0.10;;
23262;SDS011;11800;49.830;9.922;2023-04-10T12:08:44;0.10;;;0.10;;
23262;SDS011;11800;49.830;9.922;2023-04-10T12:11:12;0.10;;;0.10;;
23262;SDS011;11800;49.830;9.922;2023-04-10T12:13:38;0.10;;;0.10;;
23262;SDS011;11800;49.830;9.922;2023-04-10T12:16:07;0.13;;;0.13;;
23262;SDS011;11800;49.830;9.922;2023-04-10T12:18:34;0.20;;;0.20;;
23262;SDS011;11800;49.830;9.922;2023-04-10T12:21:00;0.10;;;0.10;;
23262;SDS011;11800;49.830;9.922;2023-04-10T12:23:26;0.10;;;0.10;;
23262;SDS011;11800;49.830;9.922;2023-04-10T12:25:55;0.15;;;0.15;;
23262;SDS011;11800;49.830;9.922;2023-04-10T12:28:31;0.10;;;0.10;;
23262;SDS011;11800;49.830;9.922;2023-04-10T12:30:57;0.10;;;0.10;;
23262;SDS011;11800;49.830;9.922;2023-04-10T12:33:23;0.10;;;0.10;;
23262;SDS011;11800;49.830;9.922;2023-04-10T12:35:50;0.10;;;0.10;;
23262;SDS011;11800;49.830;9.922;2023-04-10T12:38:33;0.20;;;0.20;;
23262;SDS011;11800;49.830;9.922;2023-04-10T12:41:00;0.20;;;0.20;;
23262;SDS011;11800;49.830;9.922;2023-04-10T12:43:33;0.20;;;0.20;;
23262;SDS011;11800;49.830;9.922;2023-04-10T12:46:00;0.20;;;0.20;;
23262;SDS011;11800;49.830;9.922;2023-04-10T12:48:26;0.20;;;0.20;;
23262;SDS011;11800;49.830;9.922;2023-04-10T12:50:52;0.20;;;0.20;;
23262;SDS011;11800;49.830;9.922;2023-04-10T12:53:18;0.30;;;0.30;;
23262;SDS011;11800;49.830;9.922;2023-04-10T12:55:58;0.30;;;0.30;;
23262;SDS011;11800;49.830;9.922;2023-04-10T12:58:24;0.30;;;0.30;;
23262;SDS011;11800;49.830;9.922;2023-04-10T13:00:52;0.30;;;0.30;;
23262;SDS011;11800;49.830;9.922;2023-04-10T13:03:18;0.30;;;0.30;;
23262;SDS011;11800;49.830;9.922;2023-04-10T13:05:44;0.30;;;0.30;;
23262;SDS011;11800;49.830;9.922;2023-04-10T13:08:11;0.30;;;0.30;;
23262;SDS011;11800;49.830;9.922;2023-04-10T13:10:37;0.30;;;0.30;;
23262;SDS011;11800;49.830;9.922;2023-04-10T13:13:04;0.30;;;0.30;;
23262;SDS011;11800;49.830;9.922;2023-04-10T13:15:31;0.25;;;0.25;;
23262;SDS011;11800;49.830;9.922;2023-04-10T13:17:58;0.22;;;0.22;;
23262;SDS011;11800;49.830;9.922;2023-04-10T13:20:24;0.30;;;0.30;;
23262;SDS011;11800;49.830;9.922;2023-04-10T13:22:51;0.30;;;0.30;;
23262;SDS011;11800;49.830;9.922;2023-04-10T13:25:17;0.20;;;0.20;;
23262;SDS011;11800;49.830;9.922;2023-04-10T13:27:43;0.20;;;0.20;;
23262;SDS011;11800;49.830;9.922;2023-04-10T13:30:09;0.20;;;0.20;;
23262;SDS011;11800;49.830;9.922;2023-04-10T13:32:35;0.20;;;0.20;;
23262;SDS011;11800;49.830;9.922;2023-04-10T13:35:01;0.20;;;0.20;;
23262;SDS011;11800;49.830;9.922;2023-04-10T13:37:27;0.20;;;0.20;;
23262;SDS011;11800;49.830;9.922;2023-04-10T13:39:53;0.20;;;0.20;;
23262;SDS011;11800;49.830;9.922;2023-04-10T13:42:19;0.10;;;0.10;;
23262;SDS011;11800;49.830;9.922;2023-04-10T13:44:45;0.10;;;0.10;;
23262;SDS011;11800;49.830;9.922;2023-04-10T13:47:13;0.10;;;0.10;;
23262;SDS011;11800;49.830;9.922;2023-04-10T13:49:39;0.10;;;0.10;;
23262;SDS011;11800;49.830;9.922;2023-04-10T13:52:05;0.10;;;0.10;;
23262;SDS011;11800;49.830;9.922;2023-04-10T13:54:31;0.20;;;0.20;;
23262;SDS011;11800;49.830;9.922;2023-04-10T13:56:57;0.10;;;0.10;;
23262;SDS011;11800;49.830;9.922;2023-04-10T13:59:23;0.20;;;0.20;;
23262;SDS011;11800;49.830;9.922;2023-04-10T14:01:49;0.20;;;0.20;;
23262;SDS011;11800;49.830;9.922;2023-04-10T14:04:16;0.20;;;0.20;;
23262;SDS011;11800;49.830;9.922;2023-04-10T14:06:42;0.10;;;0.10;;
23262;SDS011;11800;49.830;9.922;2023-04-10T14:09:08;0.10;;;0.10;;
23262;SDS011;11800;49.830;9.922;2023-04-10T14:11:34;0.10;;;0.10;;
23262;SDS011;11800;49.830;9.922;2023-04-10T14:14:00;0.10;;;0.10;;
23262;SDS011;11800;49.830;9.922;2023-04-10T14:16:26;0.10;;;0.10;;
23262;SDS011;11800;49.830;9.922;2023-04-10T14:18:52;0.10;;;0.10;;
23262;SDS011;11800;49.830;9.922;2023-04-10T14:21:18;0.10;;;0.10;;
23262;SDS011;11800;49.830;9.922;2023-04-10T14:23:44;0.10;;;0.10;;
23262;SDS011;11800;49.830;9.922;2023-04-10T14:26:10;0.10;;;0.10;;
23262;SDS011;11800;49.830;9.922;2023-04-10T14:28:36;0.10;;;0.10;;
23262;SDS011;11800;49.830;9.922;2023-04-10T14:31:03;0.10;;;0.10;;
23262;SDS011;11800;49.830;9.922;2023-04-10T14:33:29;0.10;;;0.10;;
23262;SDS011;11800;49.830;9.922;2023-04-10T14:35:55;0.10;;;0.10;;
23262;SDS011;11800;49.830;9.922;2023-04-10T14:38:21;0.17;;;0.17;;
23262;SDS011;11800;49.830;9.922;2023-04-10T14:40:47;0.15;;;0.15;;
23262;SDS011;11800;49.830;9.922;2023-04-10T14:43:14;0.10;;;0.10;;
23262;SDS011;11800;49.830;9.922;2023-04-10T14:45:40;0.10;;;0.10;;
23262;SDS011;11800;49.830;9.922;2023-04-10T14:48:06;0.10;;;0.10;;
23262;SDS011;11800;49.830;9.922;2023-04-10T14:50:32;0.13;;;0.13;;
23262;SDS011;11800;49.830;9.922;2023-04-10T14:52:58;0.17;;;0.17;;
23262;SDS011;11800;49.830;9.922;2023-04-10T14:55:28;0.20;;;0.20;;
23262;SDS011;11800;49.830;9.922;2023-04-10T14:57:54;0.10;;;0.10;;
23262;SDS011;11800;49.830;9.922;2023-04-10T15:00:20;0.10;;;0.10;;
23262;SDS011;11800;49.830;9.922;2023-04-10T15:02:48;0.10;;;0.10;;
23262;SDS011;11800;49.830;9.922;2023-04-10T15:05:14;0.10;;;0.10;;
23262;SDS011;11800;49.830;9.922;2023-04-10T15:07:40;0.10;;;0.10;;
23262;SDS011;11800;49.830;9.922;2023-04-10T15:10:06;0.10;;;0.10;;
23262;SDS011;11800;49.830;9.922;2023-04-10T15:12:34;0.10;;;0.10;;
23262;SDS011;11800;49.830;9.922;2023-04-10T15:15:00;0.10;;;0.10;;
23262;SDS011;11800;49.830;9.922;2023-04-10T15:17:26;0.10;;;0.10;;
23262;SDS011;11800;49.830;9.922;2023-04-10T15:19:53;0.10;;;0.10;;
23262;SDS011;11800;49.830;9.922;2023-04-10T15:22:19;0.00;;;0.00;;
23262;SDS011;11800;49.830;9.922;2023-04-10T15:24:45;0.00;;;0.00;;
23262;SDS011;11800;49.830;9.922;2023-04-10T15:27:11;0.10;;;0.10;;
23262;SDS011;11800;49.830;9.922;2023-04-10T15:29:38;0.10;;;0.10;;
23262;SDS011;11800;49.830;9.922;2023-04-10T15:32:04;0.05;;;0.05;;
23262;SDS011;11800;49.830;9.922;2023-04-10T15:34:30;0.00;;;0.00;;